ΕΜΥ, Εθνική Μετεωρολογική Υπηρεσία - Δελτία Καιρού, Προγνώσεις

ΑΕΡΟΝΑΥΤΙΛΙΑ

GREEK AIRPORTS CODES

LGLR 250820Z 00000KT 8000 SCT030 BKN060 09/05 Q1026=

EUROPEAN AIRPORTS CODES

LFPO 250830Z 16003KT 9999 FEW016 BKN260 07/05 Q1016 NOSIG=